METAR Data
IDs: Format: Raw Decoded Include TAF

Data at: 1629 UTC 18 Feb 2019

METAR for:KIKV (Ankeny Rgnl, IA, US)
Text:KIKV 181615Z AUTO 33009KT 10SM CLR M10/M13 A3045 RMK AO2
Temperature:-10.0°C ( 14°F)
Dewpoint:-13.0°C ( 9°F) [RH = 79%]
Pressure (altimeter):30.45 inches Hg (1031.2 mb)
Winds:from the NNW (330 degrees) at 10 MPH (9 knots; 4.6 m/s)
Visibility:10 or more sm (16+ km)
Ceiling:at least 12,000 feet AGL
Clouds:sky clear below 12,000 feet AGL
QC Flag:automated observation with no human augmentation